Detroit, Michigan
Traffic Map
Current Weather Conditions
Detroit, Michigan
Overcast
Overcast
64°
Feels Like: 64°
Wind Chill: 64° Ceiling: 2600
Heat Index: 64° Visibility: 12mi
Dew Point: 55° Wind: 5mph
Humidity: 73% Direction: 70° (ENE)
Pressure: 30.05in Gusts: 0mph
Raw Report DataCYQG 011800Z 07004KT 12SM OVC026 18/13 A3005 RMK SC8 SLP178
Traffic Incident Summary
Active as of:
Severity:
Category:
InformationThere was an issue retrieving the traffic information for this location. Please try a different location or try again shortly.
Advertisements
Track Severe Weather on mobile